This is the latest recevied weather packets stored in our database for station/object KA5ZCI. If no packets are shown the sender has not sent any weather packets the latest 10 day(s).
| Time | Temp. | Humidity | Pressure | Rain* | Wind** | Luminosity | Snow |
|---|---|---|---|---|---|---|---|
| 1777978204 | 16.67° C | 92% | 1012.7 hPa | 0 mm | - | 0 W/m² | - |
| 1777976103 | 16.11° C | 91% | 1012.9 hPa | 0 mm | - | 0 W/m² | - |
| 1777972804 | 15.56° C | 92% | 1012.9 hPa | 0 mm | - | 0 W/m² | - |
| 1777970704 | 15.56° C | 90% | 1012.7 hPa | 0 mm | - | 0 W/m² | - |
| 1777969203 | 16.11° C | 89% | 1012.7 hPa | 0 mm | - | 0 W/m² | - |
| 1777960504 | 16.11° C | 87% | 1014.1 hPa | 0 mm | - | 0 W/m² | - |
| 1777959904 | 16.11° C | 87% | 1014.1 hPa | 0 mm | - | 0 W/m² | - |
| 1777958103 | 17.22° C | 81% | 1013.9 hPa | 0 mm | - | 0 W/m² | - |
| 1777957505 | 17.22° C | 81% | 1013.7 hPa | 0 mm | - | 0 W/m² | - |
| 1777956904 | 17.22° C | 81% | 1013.8 hPa | 0 mm | - | 0 W/m² | - |
| 1777953904 | 17.78° C | 76% | 1014.4 hPa | 0 mm | - | 0 W/m² | - |
| 1777949704 | 18.89° C | 69% | 1014.2 hPa | 0 mm | - | 0 W/m² | - |
| 1777947904 | 18.89° C | 66% | 1014.2 hPa | 0 mm | - | 0 W/m² | - |
| 1777947304 | 18.89° C | 67% | 1014.1 hPa | 0 mm | - | 0 W/m² | - |
| 1777946404 | 19.44° C | 65% | 1014.2 hPa | 0 mm | - | 0 W/m² | - |
| 1777939804 | 22.78° C | 49% | 1014.2 hPa | 0 mm | - | 0 W/m² | - |
| 1777932304 | 25.56° C | 39% | 1015.2 hPa | 0 mm | - | 0 W/m² | - |
| 1777931105 | 26.11° C | 39% | 1015.2 hPa | 0 mm | - | 0 W/m² | - |
| 1777930205 | 26.11° C | 37% | 1015.3 hPa | 0 mm | - | 0 W/m² | - |
| 1777926304 | 26.67° C | 36% | 1015.9 hPa | 0 mm | - | 0 W/m² | - |
| 1777920303 | 26.11° C | 36% | 1017 hPa | 0 mm | - | 0 W/m² | - |
| 1777919704 | 26.11° C | 35% | 1017.4 hPa | 0 mm | - | 0 W/m² | - |
| 1777918504 | 25.56° C | 37% | 1017.5 hPa | 0 mm | - | 0 W/m² | - |
| 1777918204 | 25.56° C | 37% | 1017.6 hPa | 0 mm | - | 0 W/m² | - |
| 1777917003 | 25.56° C | 39% | 1017.6 hPa | 0 mm | - | 0 W/m² | - |
* Rain latest hour (hover to see other rain measurements)
** Current wind speed in m/s (hover to see current wind gust speed)